createdAt,value
2019-05-30T00:03:34.199Z,11.18
2019-05-30T00:08:43.136Z,8.60
2019-05-30T00:13:52.120Z,8.64
2019-05-30T00:19:01.055Z,9.44
2019-05-30T00:24:10.017Z,9.12
2019-05-30T00:29:19.015Z,10.77
2019-05-30T00:34:28.097Z,9.55
2019-05-30T00:39:37.004Z,6.72
2019-05-30T00:44:45.947Z,6.36
2019-05-30T00:49:56.148Z,7.86
2019-05-30T00:55:04.671Z,7.03
2019-05-30T01:00:11.915Z,6.28
2019-05-30T01:05:20.844Z,6.41
2019-05-30T01:10:29.851Z,3.88
2019-05-30T01:15:38.787Z,4.08
2019-05-30T01:20:47.723Z,2.95
2019-05-30T01:25:57.323Z,1.57
2019-05-30T01:31:09.587Z,1.56
2019-05-30T01:36:13.631Z,2.72
2019-05-30T01:41:22.595Z,3.13
2019-05-30T01:46:31.559Z,1.39
2019-05-30T01:51:40.547Z,2.18
2019-05-30T01:56:49.542Z,2.08
2019-05-30T02:01:58.873Z,1.19
2019-05-30T02:07:07.356Z,2.07
2019-05-30T02:12:16.091Z,2.44
2019-05-30T02:17:25.002Z,1.33
2019-05-30T02:22:33.947Z,0.87
2019-05-30T02:27:42.938Z,2.55
2019-05-30T02:32:51.872Z,1.42
2019-05-30T02:38:00.977Z,2.69
2019-05-30T02:43:11.871Z,2.14
2019-05-30T02:48:18.344Z,2.49
2019-05-30T02:53:27.279Z,0.63
2019-05-30T02:58:36.300Z,1.45
2019-05-30T03:03:45.254Z,1.21
2019-05-30T03:08:54.220Z,1.73
2019-05-30T03:14:04.464Z,1.58
2019-05-30T03:19:12.724Z,1.91
2019-05-30T03:24:20.346Z,1.74
2019-05-30T03:29:29.332Z,1.20
2019-05-30T03:34:38.301Z,1.65
2019-05-30T03:39:47.285Z,3.06
2019-05-30T03:44:56.216Z,1.45
2019-05-30T03:50:06.908Z,2.83
2019-05-30T03:55:14.960Z,1.31
2019-05-30T04:00:22.195Z,2.01
2019-05-30T04:05:31.134Z,1.46
2019-05-30T04:10:40.311Z,1.34
2019-05-30T04:15:49.231Z,1.93
2019-05-30T04:20:58.191Z,1.96
2019-05-30T04:26:07.478Z,3.44
2019-05-30T04:31:17.261Z,2.75
2019-05-30T04:36:24.163Z,2.43
2019-05-30T04:41:33.119Z,4.44
2019-05-30T04:46:42.047Z,2.46
2019-05-30T04:51:50.998Z,2.54
2019-05-30T04:56:59.932Z,2.45
2019-05-30T05:02:08.930Z,4.08
2019-05-30T05:07:17.957Z,4.55
2019-05-30T05:12:26.819Z,3.16
2019-05-30T05:17:35.753Z,3.15
2019-05-30T05:22:44.919Z,3.17
2019-05-30T05:27:53.847Z,4.54
2019-05-30T05:33:02.830Z,4.50
2019-05-30T05:38:11.779Z,6.21
2019-05-30T05:43:20.707Z,6.70
2019-05-30T05:48:29.632Z,4.67
2019-05-30T05:53:38.686Z,3.34
2019-05-30T05:58:47.634Z,2.81
2019-05-30T06:04:09.899Z,3.24
2019-05-30T06:09:05.057Z,3.48
2019-05-30T06:14:13.979Z,7.51
2019-05-30T06:19:23.215Z,5.60
2019-05-30T06:24:31.387Z,6.11
2019-05-30T06:29:40.330Z,5.41
2019-05-30T06:34:49.327Z,4.87
2019-05-30T06:39:58.264Z,4.39
2019-05-30T06:45:07.254Z,3.57
2019-05-30T06:50:16.183Z,4.46
2019-05-30T06:55:25.230Z,7.22
2019-05-30T07:00:34.095Z,6.05
2019-05-30T07:05:43.430Z,4.19
2019-05-30T07:10:51.548Z,6.86
2019-05-30T07:16:00.509Z,6.58
2019-05-30T07:21:09.430Z,8.03
2019-05-30T07:26:18.442Z,5.53
2019-05-30T07:31:28.086Z,6.10
2019-05-30T07:36:35.909Z,4.38
2019-05-30T07:41:44.837Z,5.39
2019-05-30T07:46:53.863Z,5.44
2019-05-30T07:52:02.816Z,7.94
2019-05-30T07:57:11.771Z,9.97
2019-05-30T08:02:20.683Z,6.42
2019-05-30T08:07:30.662Z,4.86
2019-05-30T08:12:38.464Z,5.09
2019-05-30T08:17:46.627Z,5.56
2019-05-30T08:22:55.602Z,4.84
2019-05-30T08:28:04.707Z,6.73
2019-05-30T08:33:13.639Z,9.56
2019-05-30T08:38:23.212Z,9.71
2019-05-30T08:43:33.306Z,9.73
2019-05-30T08:48:40.730Z,6.70
2019-05-30T08:53:49.655Z,6.87
2019-05-30T08:58:58.631Z,6.09
2019-05-30T09:04:07.560Z,7.14
2019-05-30T09:09:16.515Z,9.24
2019-05-30T09:14:25.475Z,7.99
2019-05-30T09:19:34.537Z,8.15
2019-05-30T09:24:44.016Z,9.26
2019-05-30T09:29:52.075Z,8.08
2019-05-30T09:35:01.026Z,6.76
2019-05-30T09:40:09.978Z,7.56
2019-05-30T09:45:18.916Z,9.05
2019-05-30T09:50:27.896Z,7.34
2019-05-30T09:55:36.823Z,6.92
2019-05-30T10:00:47.250Z,11.05
2019-05-30T10:05:54.305Z,6.62
2019-05-30T10:11:03.278Z,9.32
2019-05-30T10:16:12.203Z,8.30
2019-05-30T10:21:21.199Z,9.07
2019-05-30T10:26:30.183Z,6.96
2019-05-30T10:31:39.233Z,7.59
2019-05-30T10:36:48.886Z,8.32
2019-05-30T10:41:57.221Z,9.34
2019-05-30T10:47:05.274Z,9.40
2019-05-30T10:52:14.293Z,10.08
2019-05-30T10:57:23.387Z,8.82
2019-05-30T11:02:32.420Z,12.24
2019-05-30T11:07:53.032Z,10.25
2019-05-30T11:12:56.193Z,8.18
2019-05-30T11:17:58.350Z,9.75
2019-05-30T11:23:07.379Z,12.49
2019-05-30T11:28:16.364Z,10.93
2019-05-30T11:33:25.338Z,8.79
2019-05-30T11:38:34.324Z,7.95
2019-05-30T11:43:43.278Z,9.42
2019-05-30T11:48:52.235Z,12.22
2019-05-30T11:54:01.261Z,12.93
2019-05-30T11:59:10.415Z,10.68
2019-05-30T12:04:19.447Z,11.98
2019-05-30T12:09:28.416Z,9.66
2019-05-30T12:14:37.388Z,13.29
2019-05-30T12:19:46.351Z,9.62
2019-05-30T12:24:55.872Z,10.29
2019-05-30T12:30:03.763Z,8.43
2019-05-30T12:35:12.697Z,9.28
2019-05-30T12:40:21.695Z,8.98
2019-05-30T12:45:30.610Z,6.81
2019-05-30T12:50:39.570Z,8.67
2019-05-30T12:55:48.503Z,7.64
2019-05-30T13:00:58.664Z,8.97
2019-05-30T13:06:07.439Z,5.56
2019-05-30T13:11:14.382Z,7.12
2019-05-30T13:16:23.306Z,5.53
2019-05-30T13:21:32.247Z,5.57
2019-05-30T13:26:41.234Z,6.15
2019-05-30T13:31:50.171Z,3.68
2019-05-30T13:36:59.134Z,7.46
2019-05-30T13:42:08.091Z,4.78
2019-05-30T13:47:17.035Z,6.15
2019-05-30T13:52:25.951Z,6.31
2019-05-30T13:57:34.947Z,8.85
2019-05-30T14:02:43.873Z,7.62
2019-05-30T14:07:52.847Z,5.62
2019-05-30T14:13:02.521Z,4.33
2019-05-30T14:18:11.191Z,4.03
2019-05-30T14:23:18.716Z,7.68
2019-05-30T14:28:27.685Z,3.83
2019-05-30T14:33:36.608Z,9.01
2019-05-30T14:38:57.733Z,5.55
2019-05-30T14:43:54.050Z,5.15
2019-05-30T14:49:03.028Z,5.52
2019-05-30T14:54:13.168Z,4.12
2019-05-30T14:59:20.523Z,3.68
2019-05-30T15:04:29.444Z,3.51
2019-05-30T15:09:38.455Z,3.48
2019-05-30T15:14:47.367Z,2.62
2019-05-30T15:19:56.408Z,1.34
2019-05-30T15:25:05.756Z,1.70
2019-05-30T15:30:14.742Z,1.11
2019-05-30T15:35:22.380Z,1.28
2019-05-30T15:40:31.303Z,0.77
2019-05-30T15:45:40.264Z,1.10
2019-05-30T15:50:49.198Z,0.35
2019-05-30T15:55:58.279Z,1.85
2019-05-30T16:01:07.223Z,0.88
2019-05-30T16:06:16.536Z,1.70
2019-05-30T16:11:25.195Z,0.42
2019-05-30T16:16:39.373Z,0.39
2019-05-30T16:21:42.780Z,1.35
2019-05-30T16:26:51.894Z,0.72
2019-05-30T16:32:00.849Z,1.56
2019-05-30T16:37:09.845Z,1.99
2019-05-30T16:42:18.767Z,1.12
2019-05-30T16:47:27.750Z,1.39
2019-05-30T16:52:36.673Z,1.93
2019-05-30T16:57:45.699Z,3.32
2019-05-30T17:02:54.627Z,3.81
2019-05-30T17:08:03.739Z,1.93
2019-05-30T17:13:12.667Z,1.61
2019-05-30T17:18:22.349Z,4.08
2019-05-30T17:23:30.160Z,2.06
2019-05-30T17:28:39.158Z,2.04
2019-05-30T17:33:48.087Z,1.57
2019-05-30T17:38:57.166Z,1.94
2019-05-30T17:44:06.111Z,1.93
2019-05-30T17:49:15.139Z,3.15
2019-05-30T17:54:24.055Z,2.70
2019-05-30T17:59:33.039Z,2.43
2019-05-30T18:04:42.003Z,2.63
2019-05-30T18:09:51.055Z,1.94
2019-05-30T18:14:59.992Z,2.53
2019-05-30T18:20:08.999Z,2.18
2019-05-30T18:25:17.967Z,1.87
2019-05-30T18:30:27.998Z,3.05
2019-05-30T18:35:35.612Z,2.06
2019-05-30T18:40:44.618Z,3.08
2019-05-30T18:45:53.526Z,2.24
2019-05-30T18:51:02.591Z,3.35
2019-05-30T18:56:11.530Z,1.19
2019-05-30T19:01:20.531Z,2.16
2019-05-30T19:06:29.999Z,8.30
2019-05-30T19:11:38.266Z,2.93
2019-05-30T19:16:46.427Z,3.16
2019-05-30T19:21:55.380Z,3.23
2019-05-30T19:27:04.331Z,2.61
2019-05-30T19:32:13.344Z,3.00
2019-05-30T19:37:22.360Z,1.99
2019-05-30T19:42:31.449Z,3.43
2019-05-30T19:47:40.350Z,5.54
2019-05-30T19:52:49.343Z,3.85
2019-05-30T19:57:58.291Z,3.98
2019-05-30T20:03:07.311Z,2.41
2019-05-30T20:08:16.295Z,4.10
2019-05-30T20:13:25.262Z,2.50
2019-05-30T20:18:34.187Z,3.93
2019-05-30T20:23:53.762Z,3.24
2019-05-30T20:28:51.603Z,4.48
2019-05-30T20:34:00.566Z,3.04
2019-05-30T20:39:09.496Z,3.42
2019-05-30T20:44:18.468Z,3.60
2019-05-30T20:49:27.399Z,2.77
2019-05-30T20:54:37.324Z,2.62
2019-05-30T20:59:44.811Z,2.32
2019-05-30T21:04:53.832Z,6.23
2019-05-30T21:10:02.755Z,2.20
2019-05-30T21:15:11.693Z,2.84
2019-05-30T21:20:20.631Z,1.94
2019-05-30T21:25:29.642Z,2.36
2019-05-30T21:30:38.856Z,1.43
2019-05-30T21:35:48.108Z,1.88
2019-05-30T21:40:56.100Z,1.41
2019-05-30T21:46:05.146Z,1.40
2019-05-30T21:51:14.079Z,2.11
2019-05-30T21:56:23.051Z,2.92
2019-05-30T22:01:31.978Z,1.58
2019-05-30T22:06:40.991Z,2.58
2019-05-30T22:11:49.927Z,1.29
2019-05-30T22:16:58.930Z,3.38
2019-05-30T22:22:07.919Z,2.89
2019-05-30T22:27:16.942Z,2.83
2019-05-30T22:32:25.851Z,2.30
2019-05-30T22:37:34.846Z,2.69
2019-05-30T22:42:44.157Z,1.85
2019-05-30T22:47:52.815Z,1.75
2019-05-30T22:53:01.735Z,2.73
2019-05-30T22:58:10.679Z,2.90
2019-05-30T23:03:19.628Z,4.14
2019-05-30T23:08:28.653Z,1.41
2019-05-30T23:13:40.589Z,2.69
2019-05-30T23:18:46.439Z,2.59
2019-05-30T23:23:55.323Z,1.32
2019-05-30T23:29:03.966Z,2.00
2019-05-30T23:34:12.910Z,1.36
2019-05-30T23:39:21.895Z,1.90
2019-05-30T23:44:30.812Z,1.74
2019-05-30T23:49:39.795Z,1.99
2019-05-30T23:54:49.953Z,1.13
2019-05-30T23:59:57.319Z,2.24
